Flight Track Log - Related Links

Times and Time Zones

All times are in EDT time to prevent confusion due to time zone crossing. See the N1081C flight status page for this flight to view local times or setup timezone preferences in your user account.

Time Position Orientation Groundspeed Altitude Reporting Facility
EDT Latitude Longitude Course Direction KTS MPH feet Rate Location/Type
Sun 03:39:30 PM 40.0078 -82.4875 229° Southwest 124 143 3,300  Level Indianapolis Center
Sun 03:40:12 PM 39.9853 -82.4850 175° South 124 143 3,900 750 Climbing Indianapolis Center
Sun 03:41:14 PM 39.9519 -82.4822 176° South 122 140 4,600 732 Climbing Indianapolis Center
Sun 03:42:15 PM 39.9217 -82.4992 203° Southwest 126 145 5,400 780 Climbing Indianapolis Center
Sun 03:43:17 PM 39.8997 -82.5267 224° Southwest 115 132 6,200 774 Climbing Indianapolis Center
Sun 03:44:19 PM 39.8781 -82.5550 225° Southwest 111 128 7,000 777 Climbing Indianapolis Center
Sun 03:45:36 PM 39.8428 -82.5931 220° Southwest 123 142 8,000 811 Climbing Indianapolis Center
Sun 03:47:24 PM 39.7981 -82.6464 223° Southwest 120 138 9,500 706 Climbing Indianapolis Center
Sun 03:48:26 PM 39.7950 -82.6903 265° West 122 140 10,000 244 Climbing Indianapolis Center
Sun 03:49:27 PM 39.7922 -82.7469 266° West 149 171 10,000  Level Indianapolis Center
Sun 03:50:29 PM 39.7861 -82.8086 263° West 171 197 10,000  Level Indianapolis Center
Sun 03:51:31 PM 39.7733 -82.8689 255° West 172 198 10,000  Level Indianapolis Center
Sun 03:52:33 PM 39.7578 -82.9306 252° West 176 203 10,000  Level Indianapolis Center
Sun 03:53:34 PM 39.7431 -82.9931 253° West 179 206 10,000  Level Indianapolis Center
Sun 03:54:36 PM 39.7292 -83.0569 254° West 180 207 10,000 145 Level Indianapolis Center
Sun 03:55:38 PM 39.7147 -83.1217 254° West 184 212 10,300 677 Climbing Indianapolis Center
Sun 03:56:40 PM 39.7031 -83.1831 256° West 151 174 11,400 976 Climbing Indianapolis Center
Sun 03:57:41 PM 39.6947 -83.2303 257° West 135 155 12,300 878 Climbing Indianapolis Center
Sun 03:58:43 PM 39.6850 -83.2742 254° West 127 146 13,200 774 Climbing Indianapolis Center
Sun 03:59:45 PM 39.6747 -83.3181 253° West 125 144 13,900 387 Climbing Indianapolis Center
Sun 04:00:47 PM 39.6633 -83.3681 254° West 141 162 14,000 48 Climbing Indianapolis Center
Sun 04:01:49 PM 39.6489 -83.4286 253° West 169 194 14,000  Level Indianapolis Center
Sun 04:02:50 PM 39.6347 -83.4906 253° West 177 204 14,000 -49 Level Indianapolis Center
Sun 04:03:52 PM 39.6206 -83.5525 253° West 176 203 13,900  Descending Indianapolis Center
Sun 04:04:54 PM 39.6056 -83.6122 252° West 175 201 14,000 48 Climbing Indianapolis Center
Sun 04:05:56 PM 39.5933 -83.6747 256° West 176 203 14,000  Level Indianapolis Center
Sun 04:06:57 PM 39.5806 -83.7394 256° West 182 209 14,000  Level Indianapolis Center
Sun 04:07:59 PM 39.5658 -83.8128 255° West 180 207 14,000  Level Indianapolis Center
Sun 04:09:01 PM 39.5514 -83.8753 253° West 180 207 14,000  Level Indianapolis Center
Sun 04:10:02 PM 39.5372 -83.9386 254° West 181 208 14,000  Level Indianapolis Center
Sun 04:12:06 PM 39.5083 -84.0650 254° West 181 208 14,000  Level Indianapolis Center
Sun 04:13:07 PM 39.4942 -84.1283 254° West 181 208 14,000  Level Indianapolis Center
Sun 04:14:09 PM 39.4803 -84.1914 254° West 179 206 14,000  Level Indianapolis Center
Sun 04:15:11 PM 39.4653 -84.2569 254° West 186 214 14,000  Level Indianapolis Center
Sun 04:16:12 PM 39.4506 -84.3208 253° West 185 213 14,000  Level Indianapolis Center
Sun 04:17:14 PM 39.4364 -84.3858 254° West 185 213 14,000  Level Indianapolis Center
Sun 04:18:16 PM 39.4214 -84.4619 256° West 186 214 14,000  Level Indianapolis Center
Sun 04:19:18 PM 39.4044 -84.5269 251° West 188 216 14,000  Level Indianapolis Center
Sun 04:20:19 PM 39.3914 -84.5931 256° West 189 217 14,000  Level Indianapolis Center
Sun 04:22:23 PM 39.3603 -84.7247 253° West 190 219 14,000  Level Indianapolis Center
Sun 04:23:25 PM 39.3442 -84.7908 253° West 191 220 14,000  Level Indianapolis Center
Sun 04:24:26 PM 39.3283 -84.8575 253° West 193 222 14,000  Level Indianapolis Center
Sun 04:25:28 PM 39.3111 -84.9256 252° West 194 223 14,000  Level Indianapolis Center
Sun 04:26:30 PM 39.2972 -84.9919 255° West 192 221 14,000  Level Indianapolis Center
Sun 04:27:31 PM 39.2836 -85.0564 255° West 187 215 14,000  Level Indianapolis Center
Sun 04:28:33 PM 39.2675 -85.1197 252° West 187 215 14,000  Level Indianapolis Center
Sun 04:29:35 PM 39.2506 -85.1961 254° West 185 213 14,000  Level Indianapolis Center
Sun 04:30:36 PM 39.2350 -85.2619 253° West 191 220 14,000  Level Indianapolis Center
Sun 04:31:38 PM 39.2211 -85.3264 254° West 187 215 14,000  Level Indianapolis Center
Sun 04:32:40 PM 39.2042 -85.3892 251° West 184 212 14,000  Level Indianapolis Center
Sun 04:33:41 PM 39.1894 -85.4533 254° West 185 213 14,000  Level Indianapolis Center
Sun 04:34:43 PM 39.1731 -85.5181 252° West 188 216 14,000 -49 Level Indianapolis Center
Sun 04:35:44 PM 39.1578 -85.5825 253° West 188 216 13,900  Descending Indianapolis Center
Sun 04:36:46 PM 39.1417 -85.6442 251° West 182 209 14,000  Climbing Indianapolis Center
Sun 04:37:47 PM 39.1242 -85.7192 253° West 182 209 13,900 -49 Descending Indianapolis Center
Sun 04:38:49 PM 39.1097 -85.7808 253° West 181 208 13,900  Level Indianapolis Center
Sun 04:39:51 PM 39.0947 -85.8419 252° West 180 207 13,900  Level Indianapolis Center
Sun 04:40:52 PM 39.0794 -85.9069 253° West 187 215 13,900  Level Indianapolis Center
Sun 04:41:54 PM 39.0642 -85.9692 252° West 184 212 13,900  Level Indianapolis Center
Sun 04:42:56 PM 39.0492 -86.0325 253° West 184 212 13,900  Level Indianapolis Center
Sun 04:43:57 PM 39.0347 -86.0953 254° West 183 211 13,900  Level Indianapolis Center
Sun 04:44:59 PM 39.0183 -86.1586 252° West 186 214 13,900  Level Indianapolis Center
Sun 04:46:00 PM 39.0000 -86.2347 253° West 185 213 13,900 49 Level Indianapolis Center
Sun 04:47:02 PM 38.9844 -86.2983 253° West 186 214 14,000 48 Climbing Indianapolis Center
Sun 04:48:04 PM 38.9694 -86.3614 253° West 186 214 14,000  Level Indianapolis Center
Sun 04:49:05 PM 38.9525 -86.4247 251° West 187 215 14,000  Level Indianapolis Center
Sun 04:50:07 PM 38.9369 -86.4894 253° West 189 217 14,000  Level Indianapolis Center
Sun 04:51:08 PM 38.9206 -86.5519 251° West 186 214 14,000  Level Indianapolis Center
Sun 04:52:10 PM 38.9036 -86.6261 254° West 188 216 14,000  Level Indianapolis Center
Sun 04:53:12 PM 38.8886 -86.6897 253° West 187 215 14,000  Level Indianapolis Center
Sun 04:54:13 PM 38.8722 -86.7531 252° West 187 215 14,000  Level Indianapolis Center
Sun 04:55:15 PM 38.8558 -86.8189 252° West 190 219 14,000  Level Indianapolis Center
Sun 04:56:16 PM 38.8403 -86.8839 253° West 192 221 14,000  Level Indianapolis Center
Sun 04:57:18 PM 38.8228 -86.9481 251° West 190 219 14,000  Level Indianapolis Center
Sun 04:58:19 PM 38.8078 -87.0089 252° West 182 209 14,000  Level Indianapolis Center
Sun 04:59:21 PM 38.7922 -87.0717 252° West 185 213 14,000 -242 Level Indianapolis Center
Sun 05:00:23 PM 38.7703 -87.1506 250° West 195 224 13,500 -439 Descending Indianapolis Center
Sun 05:01:24 PM 38.7533 -87.2203 253° West 204 235 13,100 -390 Descending Indianapolis Center
Sun 05:02:26 PM 38.7361 -87.2875 252° West 201 231 12,700 -390 Descending Indianapolis Center
Sun 05:03:27 PM 38.7183 -87.3539 251° West 198 228 12,300 -390 Descending Indianapolis Center
Sun 05:04:29 PM 38.7017 -87.4214 252° West 198 228 11,900 -387 Descending Indianapolis Center
Sun 05:05:31 PM 38.6839 -87.4889 251° West 199 229 11,500 -422 Descending Indianapolis Center
Sun 05:07:34 PM 38.6494 -87.6236 252° West 199 229 10,600 -457 Descending Indianapolis Center
Sun 05:08:35 PM 38.6303 -87.7053 253° West 199 229 10,100 -439 Descending Indianapolis Center
Sun 05:09:37 PM 38.6114 -87.7717 250° West 199 229 9,700 -390 Descending Indianapolis Center
Sun 05:10:38 PM 38.5947 -87.8389 252° West 198 228 9,300 -390 Descending Indianapolis Center
Sun 05:11:40 PM 38.5767 -87.9042 251° West 196 226 8,900 -390 Descending Indianapolis Center
Sun 05:12:41 PM 38.5578 -87.9711 250° West 198 228 8,500 -439 Descending Indianapolis Center
Sun 05:13:43 PM 38.5414 -88.0375 253° West 197 227 8,000 -387 Descending Indianapolis Center
Sun 05:14:45 PM 38.5256 -88.1039 253° West 196 226 7,700 -390 Descending Indianapolis Center
Sun 05:15:46 PM 38.5081 -88.1694 251° West 195 224 7,200 -390 Descending Indianapolis Center
Sun 05:16:48 PM 38.4897 -88.2403 252° West 195 224 6,900 -425 Descending Indianapolis Center
Sun 05:17:53 PM 38.4786 -88.3064 258° West 190 219 6,300 -520 Descending Kansas City Center
Sun 05:18:55 PM 38.4542 -88.3778 246° West 192 221 5,800 -532 Descending Kansas City Center
Sun 05:19:57 PM 38.4319 -88.4425 246° West 198 228 5,200 -581 Descending Kansas City Center
Sun 05:20:59 PM 38.4136 -88.5075 250° West 196 226 4,600 -581 Descending Kansas City Center
Sun 05:22:00 PM 38.3956 -88.5696 250° West  Level FlightAware Approximate
Sun 05:22:01 PM 38.3967 -88.5703 250° West 190 219 4,000  Level Kansas City Center
Sun 05:23:03 PM 38.3811 -88.6300 252° West 181 208 3,300 -677 Descending Kansas City Center
Sun 05:24:05 PM 38.3642 -88.7028 253° West 182 209 2,600 -677 Descending Kansas City Center

Login

Don't have an account? Register now (free) for customized features, flight alerts, and more!